Time;durP1;ratioP1;P1;durP2;ratioP2;P2;SDS_P1;SDS_P2;PMS_P1;PMS_P2;Temp;Humidity;BMP_temperature;BMP_pressure;BME280_temperature;BME280_humidity;BME280_pressure;Samples;Min_cycle;Max_cycle;Signal;HPM_P1;HPM_P2
2021/12/14 00:01:43;;;;;;;33.70;16.83;;;;;;;0.72;100.00;100724.98;1850078;77;23246;-79
2021/12/14 00:04:17;;;;;;;37.65;20.23;;;;;;;0.68;100.00;100728.39;1805621;78;21576;-78
2021/12/14 00:06:45;;;;;;;31.17;16.45;;;;;;;0.69;100.00;100736.62;1823258;78;21783;-76
2021/12/14 00:09:22;;;;;;;28.12;15.70;;;;;;;0.70;100.00;100737.48;1823117;78;20945;-78
2021/12/14 00:16:50;;;;;;;30.08;16.05;;;;;;;0.71;100.00;100737.92;1823680;78;21052;-81
2021/12/14 00:19:17;;;;;;;30.60;16.12;;;;;;;0.72;100.00;100747.45;1823379;78;21119;-82
2021/12/14 00:21:49;;;;;;;26.62;15.32;;;;;;;0.69;100.00;100742.21;1823388;78;21041;-81
2021/12/14 00:24:14;;;;;;;31.05;16.95;;;;;;;0.68;100.00;100741.78;1822289;78;21065;-81
2021/12/14 00:26:49;;;;;;;33.30;17.15;;;;;;;0.68;100.00;100749.55;1823113;78;21091;-80
2021/12/14 00:29:21;;;;;;;33.60;17.00;;;;;;;0.69;100.00;100742.21;1786329;80;21028;-80
2021/12/14 00:31:47;;;;;;;30.00;15.15;;;;;;;0.69;100.00;100742.21;1785552;80;21240;-81
2021/12/14 00:34:22;;;;;;;34.83;17.70;;;;;;;0.69;100.00;100736.62;1786438;80;21091;-82
2021/12/14 00:36:43;;;;;;;35.90;18.05;;;;;;;0.67;100.00;100742.21;1785739;80;21024;-80
2021/12/14 00:39:11;;;;;;;45.38;20.85;;;;;;;0.66;100.00;100737.00;1754689;81;21078;-80
2021/12/14 00:41:39;;;;;;;37.05;18.87;;;;;;;0.63;100.00;100737.40;1787003;80;21072;-78
2021/12/14 00:44:06;;;;;;;34.15;17.50;;;;;;;0.67;100.00;100741.31;1732669;81;21137;-79
2021/12/14 00:46:35;;;;;;;33.00;17.42;;;;;;;0.68;100.00;100740.48;1755773;81;21091;-82
2021/12/14 00:49:05;;;;;;;34.23;18.07;;;;;;;0.67;100.00;100730.55;1724418;83;21521;-79
2021/12/14 00:51:32;;;;;;;35.17;18.73;;;;;;;0.73;100.00;100733.62;1755680;81;21000;-79
2021/12/14 00:54:02;;;;;;;47.75;21.80;;;;;;;0.72;100.00;100738.38;1728143;81;21057;-79
2021/12/14 00:56:33;;;;;;;49.10;20.30;;;;;;;0.71;100.00;100736.62;1769708;80;21163;-77
2021/12/14 00:59:00;;;;;;;38.30;19.02;;;;;;;0.72;100.00;100737.09;1753766;81;21081;-80
2021/12/14 01:01:31;;;;;;;34.78;16.62;;;;;;;0.72;100.00;100738.38;1758418;80;21080;-79
2021/12/14 01:04:03;;;;;;;35.10;18.50;;;;;;;0.73;100.00;100738.81;1711010;83;21031;-77
2021/12/14 01:06:34;;;;;;;38.85;18.00;;;;;;;0.76;100.00;100737.55;1742809;80;21026;-79
2021/12/14 01:09:02;;;;;;;26.43;13.97;;;;;;;0.80;100.00;100741.92;1711421;83;21187;-78
2021/12/14 01:11:36;;;;;;;30.00;16.82;;;;;;;0.82;100.00;100737.63;1742130;82;21580;-79
2021/12/14 01:14:08;;;;;;;29.75;16.32;;;;;;;0.80;100.00;100743.22;1711101;83;21132;-79
2021/12/14 01:16:52;;;;;;;31.17;15.50;;;;;;;0.76;100.00;100738.84;1741734;82;21084;-80
2021/12/14 01:19:16;;;;;;;22.05;12.28;;;;;;;0.76;100.00;100738.84;1707343;83;21073;-78
2021/12/14 01:22:12;;;;;;;35.08;17.80;;;;;;;0.76;100.00;100746.63;1755914;81;21127;-79
2021/12/14 01:27:05;;;;;;;33.10;16.73;;;;;;;0.78;100.00;100747.52;1647126;86;21137;-80
2021/12/14 01:29:33;;;;;;;33.00;17.40;;;;;;;0.79;100.00;100746.68;1723155;81;21602;-82
2021/12/14 01:32:01;;;;;;;32.78;17.32;;;;;;;0.77;100.00;100749.24;1757762;81;21039;-79
2021/12/14 01:34:31;;;;;;;27.15;16.02;;;;;;;0.75;100.00;100748.78;1757558;81;21307;-80
2021/12/14 01:37:02;;;;;;;32.35;17.32;;;;;;;0.72;100.00;100750.05;1757648;81;21614;-80
2021/12/14 01:42:14;;;;;;;32.08;17.57;;;;;;;0.70;100.00;100743.97;1757635;81;21027;-77
2021/12/14 01:45:02;;;;;;;36.23;17.77;;;;;;;0.74;100.00;100752.24;1757450;80;21048;-79
2021/12/14 01:47:35;;;;;;;29.48;15.68;;;;;;;0.74;100.00;100754.83;1757046;81;21138;-78
2021/12/14 01:50:19;;;;;;;30.10;14.45;;;;;;;0.75;100.00;100750.94;1757626;81;21106;-79
2021/12/14 01:53:05;;;;;;;31.97;16.67;;;;;;;0.76;100.00;100754.40;1757474;81;21083;-78
2021/12/14 01:55:37;;;;;;;32.67;16.05;;;;;;;0.76;100.00;100756.98;1759662;81;21017;-78
2021/12/14 01:58:06;;;;;;;36.88;18.30;;;;;;;0.74;100.00;100756.13;1771291;81;21128;-77
2021/12/14 02:00:41;;;;;;;30.88;15.65;;;;;;;0.74;100.00;100754.83;1771170;80;21140;-79
2021/12/14 02:03:10;;;;;;;31.68;15.38;;;;;;;0.69;100.00;100748.29;1770457;80;21057;-79
2021/12/14 02:05:49;;;;;;;30.88;16.32;;;;;;;0.72;100.00;100751.34;1771125;81;21037;-76
2021/12/14 02:08:25;;;;;;;26.62;14.75;;;;;;;0.74;100.00;100750.94;1754526;81;21576;-77
2021/12/14 02:10:52;;;;;;;26.95;14.70;;;;;;;0.75;100.00;100748.78;1703923;83;21042;-78
2021/12/14 02:13:29;;;;;;;30.82;16.93;;;;;;;0.71;100.00;100743.11;1771321;81;21056;-79
2021/12/14 02:15:57;;;;;;;26.57;14.98;;;;;;;0.70;100.00;100747.86;1745553;80;21644;-78
2021/12/14 02:18:27;;;;;;;24.67;13.60;;;;;;;0.69;100.00;100747.39;1771328;81;21049;-79
2021/12/14 02:21:00;;;;;;;24.75;13.98;;;;;;;0.72;100.00;100752.64;1770950;81;21079;-77
2021/12/14 02:23:28;;;;;;;25.68;14.55;;;;;;;0.73;100.00;100746.59;1704752;84;21085;-74
2021/12/14 02:25:58;;;;;;;26.48;14.55;;;;;;;0.72;100.00;100747.45;1772713;81;21202;-80
2021/12/14 02:28:24;;;;;;;24.40;13.78;;;;;;;0.73;100.00;100744.00;1707023;84;21632;-80
2021/12/14 02:30:54;;;;;;;20.27;12.55;;;;;;;0.72;100.00;100738.38;1773543;80;21053;-79
2021/12/14 02:33:25;;;;;;;25.02;13.98;;;;;;;0.70;100.00;100742.24;1707649;84;21062;-79
2021/12/14 02:35:53;;;;;;;21.10;12.60;;;;;;;0.70;100.00;100738.78;1773680;81;21057;-79
2021/12/14 02:38:20;;;;;;;23.90;12.50;;;;;;;0.72;100.00;100739.68;1707822;84;21958;-79
2021/12/14 02:41:05;;;;;;;23.30;13.48;;;;;;;0.76;100.00;100741.44;1773172;81;21070;-79
2021/12/14 02:43:49;;;;;;;25.75;13.45;;;;;;;0.77;100.00;100737.58;1772977;80;21038;-80
2021/12/14 02:46:25;;;;;;;23.92;14.20;;;;;;;0.75;100.00;100737.98;1738094;82;21101;-80
2021/12/14 02:48:58;;;;;;;22.27;13.05;;;;;;;0.77;100.00;100740.60;1733584;82;21078;-80
2021/12/14 02:51:32;;;;;;;23.83;12.78;;;;;;;0.75;100.00;100743.59;1733348;82;21569;-80
2021/12/14 02:54:04;;;;;;;26.55;14.25;;;;;;;0.72;100.00;100740.54;1803936;79;20999;-78
2021/12/14 02:56:33;;;;;;;24.23;13.58;;;;;;;0.74;100.00;100745.76;1804793;79;21556;-78
2021/12/14 02:59:08;;;;;;;18.70;11.73;;;;;;;0.72;100.00;100744.86;1805695;79;21055;-79
2021/12/14 03:01:36;;;;;;;23.83;13.58;;;;;;;0.68;100.00;100745.67;1793855;79;21071;-79
2021/12/14 03:04:06;;;;;;;25.80;14.05;;;;;;;0.72;100.00;100753.94;1782794;80;21056;-79
2021/12/14 03:06:47;;;;;;;20.27;12.95;;;;;;;0.73;100.00;100756.96;1781537;80;21088;-81
2021/12/14 03:09:40;;;;;;;26.75;13.98;;;;;;;0.73;100.00;100746.16;1779992;80;21043;-80
2021/12/14 03:12:12;;;;;;;21.95;12.78;;;;;;;0.76;100.00;100747.91;1783690;80;21563;-80
2021/12/14 03:14:40;;;;;;;23.12;12.23;;;;;;;0.75;100.00;100750.08;1695376;83;21124;-81
2021/12/14 03:17:07;;;;;;;24.92;14.73;;;;;;;0.76;100.00;100751.80;1788331;80;21117;-82
2021/12/14 03:19:33;;;;;;;22.60;13.83;;;;;;;0.74;100.00;100756.13;1721238;83;21609;-82
2021/12/14 03:22:00;;;;;;;24.75;13.58;;;;;;;0.72;100.00;100755.23;1787084;80;21044;-81
2021/12/14 03:24:26;;;;;;;24.98;13.43;;;;;;;0.69;100.00;100756.47;1759043;80;21047;-82
2021/12/14 03:26:54;;;;;;;21.40;13.10;;;;;;;0.70;100.00;100749.16;1758841;81;21556;-78
2021/12/14 03:29:27;;;;;;;22.20;13.72;;;;;;;0.67;100.00;100750.39;1758692;81;21184;-79
2021/12/14 03:31:57;;;;;;;25.92;13.65;;;;;;;0.65;100.00;100746.94;1758324;80;21055;-78
2021/12/14 03:34:33;;;;;;;24.15;14.18;;;;;;;0.63;100.00;100749.06;1758354;81;21047;-77
2021/12/14 03:37:13;;;;;;;25.40;14.43;;;;;;;0.68;100.00;100749.55;1757767;81;21070;-77
2021/12/14 03:39:51;;;;;;;22.13;12.65;;;;;;;0.68;100.00;100745.67;1758759;81;21046;-77
2021/12/14 03:42:36;;;;;;;17.95;10.48;;;;;;;0.66;100.00;100749.95;1757117;81;21198;-82
2021/12/14 03:44:57;;;;;;;23.02;13.78;;;;;;;0.63;100.00;100749.06;1759042;81;21058;-74
2021/12/14 03:47:34;;;;;;;24.57;13.53;;;;;;;0.60;100.00;100754.22;1757826;81;21038;-73
2021/12/14 03:50:07;;;;;;;26.82;15.05;;;;;;;0.59;100.00;100754.19;1758458;81;21335;-73
2021/12/14 03:52:36;;;;;;;26.75;15.18;;;;;;;0.54;100.00;100751.96;1758233;81;21042;-73
2021/12/14 03:55:17;;;;;;;24.20;14.30;;;;;;;0.51;100.00;100759.27;1758643;80;21068;-74
2021/12/14 03:57:44;;;;;;;27.58;14.85;;;;;;;0.48;100.00;100757.05;1744762;82;21045;-74
2021/12/14 04:00:17;;;;;;;22.77;13.80;;;;;;;0.46;100.00;100753.16;1758593;81;21100;-73
2021/12/14 04:02:46;;;;;;;28.40;15.23;;;;;;;0.45;100.00;100756.59;1750777;79;21092;-74
2021/12/14 04:05:14;;;;;;;28.77;15.05;;;;;;;0.48;100.00;100759.64;1750289;81;21053;-74
2021/12/14 04:07:42;;;;;;;29.45;14.28;;;;;;;0.52;100.00;100766.19;1750082;82;21147;-72
2021/12/14 04:10:21;;;;;;;25.52;9.85;;;;;;;0.52;100.00;100766.19;1749652;82;21010;-73
2021/12/14 04:12:49;;;;;;;26.93;15.03;;;;;;;0.52;100.00;100770.07;1750259;81;21157;-75
2021/12/14 04:15:16;;;;;;;30.08;15.63;;;;;;;0.56;100.00;100772.30;1750290;81;21092;-75
2021/12/14 04:17:43;;;;;;;27.90;15.40;;;;;;;0.57;100.00;100773.59;1750107;81;21623;-74
2021/12/14 04:20:17;;;;;;;28.20;14.33;;;;;;;0.55;100.00;100767.55;1750397;81;21741;-74
2021/12/14 04:22:48;;;;;;;32.40;16.00;;;;;;;0.55;100.00;100775.32;1756797;80;21002;-74
2021/12/14 04:25:17;;;;;;;27.27;14.30;;;;;;;0.54;100.00;100780.47;1781146;80;21548;-75
2021/12/14 04:27:43;;;;;;;29.32;15.00;;;;;;;0.54;100.00;100780.05;1781084;80;21065;-75
2021/12/14 04:30:17;;;;;;;24.98;14.10;;;;;;;0.55;100.00;100779.61;1781380;80;21527;-74
2021/12/14 04:32:49;;;;;;;38.53;16.20;;;;;;;0.53;100.00;100780.91;1781377;80;21087;-73
2021/12/14 04:35:17;;;;;;;33.05;16.40;;;;;;;0.55;100.00;100784.39;1781250;80;21017;-75
2021/12/14 04:37:51;;;;;;;30.90;15.58;;;;;;;0.55;100.00;100785.69;1781114;80;21594;-77
2021/12/14 04:51:52;;;;;;;27.98;15.13;;;;;;;0.56;100.00;100791.30;1769093;80;21059;-74
2021/12/14 04:54:02;;;;;;;32.60;15.85;;;;;;;0.47;100.00;100791.17;1767758;80;21542;-73
2021/12/14 04:56:37;;;;;;;27.73;15.68;;;;;;;0.45;100.00;100791.57;1744948;80;21044;-73
2021/12/14 04:59:09;;;;;;;26.12;14.65;;;;;;;0.47;100.00;100794.20;1751510;80;21949;-74
2021/12/14 05:01:39;;;;;;;29.67;15.05;;;;;;;0.46;100.00;100797.22;1749847;80;21053;-74
2021/12/14 05:04:10;;;;;;;35.60;14.70;;;;;;;0.47;100.00;100800.24;1750013;82;21051;-72
2021/12/14 05:06:48;;;;;;;25.23;13.72;;;;;;;0.46;100.00;100799.81;1751548;81;20999;-73
2021/12/14 05:09:29;;;;;;;28.20;14.90;;;;;;;0.44;100.00;100797.61;1750078;82;21269;-74
2021/12/14 05:11:57;;;;;;;;;;;;;;;0.46;100.00;100804.99;1773940;80;23264;-72
2021/12/14 05:14:27;;;;;;;27.85;13.88;;;;;;;0.48;100.00;100808.45;1760428;80;20171;-72
2021/12/14 05:17:00;;;;;;;25.48;14.25;;;;;;;0.46;100.00;100808.88;1759666;80;21048;-74
2021/12/14 05:19:30;;;;;;;27.95;13.88;;;;;;;0.47;100.00;100812.34;1744779;80;21026;-74
2021/12/14 05:22:10;;;;;;;28.35;13.85;;;;;;;0.46;100.00;100821.84;1749824;82;21312;-72
2021/12/14 05:24:42;;;;;;;21.68;12.03;;;;;;;0.40;100.00;100816.55;1749310;80;21125;-74
2021/12/14 05:27:11;;;;;;;27.62;13.22;;;;;;;0.46;100.00;100815.36;1750055;82;21082;-74
2021/12/14 05:29:42;;;;;;;27.10;13.58;;;;;;;0.47;100.00;100818.38;1750392;80;21050;-75
2021/12/14 05:32:10;;;;;;;26.37;14.47;;;;;;;0.47;100.00;100823.56;1765850;80;21033;-74
2021/12/14 05:34:39;;;;;;;23.22;12.82;;;;;;;0.46;100.00;100825.73;1766796;80;22148;-74
2021/12/14 05:37:10;;;;;;;26.57;14.50;;;;;;;0.47;100.00;100834.36;1768427;80;21124;-73
2021/12/14 05:44:51;;;;;;;26.00;14.68;;;;;;;0.46;100.00;100830.91;1771044;80;21025;-73
2021/12/14 05:47:19;;;;;;;26.15;14.40;;;;;;;0.44;100.00;100822.23;1778710;80;21053;-74
2021/12/14 05:49:48;;;;;;;25.60;13.88;;;;;;;0.44;100.00;100827.42;1764583;80;21140;-75
2021/12/14 05:52:25;;;;;;;27.32;14.00;;;;;;;0.43;100.00;100829.55;1780829;80;21559;-74
2021/12/14 05:54:54;;;;;;;20.70;11.83;;;;;;;0.44;100.00;100834.30;1768772;80;21048;-74
2021/12/14 05:57:25;;;;;;;29.72;15.15;;;;;;;0.42;100.00;100829.11;1749464;80;21062;-72
2021/12/14 05:59:52;;;;;;;28.05;14.55;;;;;;;0.47;100.00;100835.23;1744921;80;21072;-74
2021/12/14 06:02:19;;;;;;;21.12;11.43;;;;;;;0.46;100.00;100832.20;1793527;79;21211;-75
2021/12/14 06:04:50;;;;;;;25.45;13.62;;;;;;;0.46;100.00;100836.09;1797434;78;21073;-74
2021/12/14 06:07:18;;;;;;;22.85;13.25;;;;;;;0.47;100.00;100835.23;1782006;80;21033;-73
2021/12/14 06:09:48;;;;;;;22.27;12.68;;;;;;;0.46;100.00;100835.19;1768143;81;21034;-75
2021/12/14 06:12:33;;;;;;;25.00;13.38;;;;;;;0.43;100.00;100834.73;1716160;83;21088;-78
2021/12/14 06:15:00;;;;;;;23.45;12.88;;;;;;;0.42;100.00;100825.22;1743597;80;21118;-73
2021/12/14 06:17:33;;;;;;;23.57;13.50;;;;;;;0.43;100.00;100832.13;1765570;80;21019;-71
2021/12/14 06:20:10;;;;;;;25.55;13.10;;;;;;;0.42;100.00;100827.81;1763040;80;21023;-72
2021/12/14 06:22:39;;;;;;;26.57;13.50;;;;;;;0.40;100.00;100835.55;1740496;80;20997;-74
2021/12/14 06:25:11;;;;;;;25.15;12.80;;;;;;;0.39;100.00;100832.92;1850529;77;21091;-74
2021/12/14 06:27:37;;;;;;;26.52;13.00;;;;;;;0.38;100.00;100835.09;1806682;77;21122;-74
2021/12/14 06:30:15;;;;;;;23.90;12.82;;;;;;;0.37;100.00;100839.83;1804302;77;21096;-72
2021/12/14 06:32:49;;;;;;;24.92;13.80;;;;;;;0.38;100.00;100841.13;1782820;77;21022;-72
2021/12/14 06:35:24;;;;;;;24.47;12.63;;;;;;;0.39;100.00;100839.01;1759764;80;21673;-71
2021/12/14 06:38:22;;;;;;;25.12;14.40;;;;;;;0.41;100.00;100849.38;1753796;80;21069;-73
2021/12/14 06:40:48;;;;;;;26.40;15.28;;;;;;;0.40;100.00;100848.51;1707509;81;21159;-73
2021/12/14 06:43:18;;;;;;;22.55;12.75;;;;;;;0.42;100.00;100849.84;1730724;81;21041;-76
2021/12/14 06:46:00;;;;;;;;;;;;;;;0.43;100.00;100852.87;1767837;79;21105;-74
2021/12/14 06:48:50;;;;;;;27.48;14.95;;;;;;;0.46;100.00;100849.45;1756762;81;20340;-73
2021/12/14 06:51:25;;;;;;;26.60;15.85;;;;;;;0.40;100.00;100848.94;1746999;81;21029;-74
2021/12/14 06:53:58;;;;;;;24.77;13.98;;;;;;;0.38;100.00;100849.34;1741895;81;21854;-75
2021/12/14 06:56:49;;;;;;;27.22;13.90;;;;;;;0.40;100.00;100843.77;1740356;80;21540;-74
2021/12/14 06:59:20;;;;;;;29.05;14.78;;;;;;;0.45;100.00;100843.41;1744006;80;22156;-72
2021/12/14 07:01:55;;;;;;;28.17;16.07;;;;;;;0.48;100.00;100839.55;1754477;79;21072;-73
2021/12/14 07:04:25;;;;;;;26.93;14.80;;;;;;;0.52;100.00;100843.08;1724164;80;21020;-73
2021/12/14 07:07:03;;;;;;;21.60;12.05;;;;;;;0.52;100.00;100845.67;1723814;81;21105;-73
2021/12/14 07:09:41;;;;;;;29.85;15.05;;;;;;;0.53;100.00;100848.30;1740257;81;21041;-72
2021/12/14 07:12:15;;;;;;;26.85;14.78;;;;;;;0.57;100.00;100852.65;1711924;82;21630;-75
2021/12/14 07:14:50;;;;;;;23.80;13.80;;;;;;;0.56;100.00;100854.80;1743736;81;21481;-74
2021/12/14 07:17:20;;;;;;;24.67;14.83;;;;;;;0.55;100.00;100851.78;1739673;80;21044;-74
2021/12/14 07:20:05;;;;;;;27.62;15.32;;;;;;;0.60;100.00;100854.45;1751142;79;21097;-73
2021/12/14 07:22:49;;;;;;;21.23;11.68;;;;;;;0.60;100.00;100857.91;1749510;79;21091;-72
2021/12/14 07:25:26;;;;;;;23.47;15.35;;;;;;;0.60;100.00;100864.38;1775136;79;21097;-73
2021/12/14 07:27:58;;;;;;;27.00;14.73;;;;;;;0.57;100.00;100851.35;1794367;78;22005;-74
2021/12/14 07:30:36;;;;;;;19.40;11.60;;;;;;;0.56;100.00;100854.80;1802474;77;21131;-74
2021/12/14 07:33:24;;;;;;;26.07;14.75;;;;;;;0.57;100.00;100856.53;1800641;79;21538;-74
2021/12/14 07:35:59;;;;;;;25.70;14.43;;;;;;;0.62;100.00;100856.20;1790307;77;21048;-75
2021/12/14 07:38:35;;;;;;;24.63;14.03;;;;;;;0.61;100.00;100847.97;1730114;80;21046;-77
2021/12/14 07:41:33;;;;;;;27.40;14.45;;;;;;;0.60;100.00;100859.20;1736461;82;21013;-76
2021/12/14 07:44:28;;;;;;;29.95;15.43;;;;;;;0.61;100.00;100859.63;1730944;82;21078;-75
2021/12/14 07:47:02;;;;;;;24.82;14.13;;;;;;;0.60;100.00;100855.74;1732671;82;21784;-75
2021/12/14 07:49:33;;;;;;;22.98;14.07;;;;;;;0.54;100.00;100856.50;1735185;82;21046;-76
2021/12/14 07:52:11;;;;;;;24.75;14.30;;;;;;;0.57;100.00;100858.27;1730731;82;21536;-75
2021/12/14 07:55:00;;;;;;;26.82;14.75;;;;;;;0.59;100.00;100866.51;1726141;80;21117;-78
2021/12/14 07:57:27;;;;;;;23.85;13.83;;;;;;;0.61;100.00;100866.11;1727796;82;21040;-79
2021/12/14 07:59:58;;;;;;;25.68;14.33;;;;;;;0.65;100.00;100867.48;1730155;82;21144;-77
2021/12/14 08:02:33;;;;;;;18.95;10.50;;;;;;;0.64;100.00;100865.28;1721139;80;21644;-78
2021/12/14 08:05:14;;;;;;;24.67;14.28;;;;;;;0.62;100.00;100861.39;1757712;80;21071;-78
2021/12/14 08:07:48;;;;;;;23.27;13.20;;;;;;;0.63;100.00;100864.42;1766248;80;21067;-79
2021/12/14 08:10:24;;;;;;;27.80;15.20;;;;;;;0.65;100.00;100849.33;1766115;80;21018;-78
2021/12/14 08:13:08;;;;;;;24.10;14.63;;;;;;;0.68;100.00;100854.55;1772207;80;21347;-78
2021/12/14 08:15:52;;;;;;;23.12;13.80;;;;;;;0.75;100.00;100852.48;1702545;82;21026;-78
2021/12/14 08:18:28;;;;;;;28.38;15.55;;;;;;;0.77;100.00;100852.09;1704674;83;21079;-78
2021/12/14 08:21:12;;;;;;;26.15;15.83;;;;;;;0.69;100.00;100832.95;1780726;80;21047;-77
2021/12/14 08:23:43;;;;;;;20.20;12.25;;;;;;;0.81;100.00;100846.11;1763366;80;21016;-78
2021/12/14 08:26:26;;;;;;;18.20;10.72;;;;;;;0.84;100.00;100850.03;1742022;80;21794;-79
2021/12/14 08:28:59;;;;;;;24.18;14.20;;;;;;;0.89;100.00;100842.31;1770078;80;21611;-77
2021/12/14 08:31:33;;;;;;;27.05;15.13;;;;;;;0.92;100.00;100841.95;1770623;80;21032;-78
2021/12/14 08:34:14;;;;;;;23.50;13.28;;;;;;;0.91;100.00;100842.78;1749650;81;21028;-76
2021/12/14 08:37:04;;;;;;;22.85;13.62;;;;;;;0.94;100.00;100845.41;1757277;80;20977;-77
2021/12/14 08:39:38;;;;;;;19.23;11.68;;;;;;;0.95;100.00;100848.89;1752822;80;21646;-77
2021/12/14 08:42:14;;;;;;;24.50;14.05;;;;;;;0.91;100.00;100853.15;1764376;80;21072;-78
2021/12/14 08:44:50;;;;;;;24.87;14.10;;;;;;;0.94;100.00;100850.59;1756276;80;21110;-76
2021/12/14 08:47:14;;;;;;;23.92;14.35;;;;;;;0.95;100.00;100848.45;1763957;80;21524;-78
2021/12/14 08:49:41;;;;;;;21.23;13.32;;;;;;;0.92;100.00;100848.43;1750720;80;21445;-76
2021/12/14 08:52:09;;;;;;;22.62;13.30;;;;;;;0.94;100.00;100851.88;1756664;80;21087;-77
2021/12/14 08:54:37;;;;;;;22.75;12.50;;;;;;;0.94;100.00;100853.61;1750090;82;21087;-78
2021/12/14 08:57:18;;;;;;;21.55;13.65;;;;;;;0.94;100.00;100847.99;1760117;80;21421;-77
2021/12/14 08:59:47;;;;;;;;;;;;;;;0.99;100.00;100847.66;1765114;80;21604;-77
2021/12/14 09:02:16;;;;;;;22.90;13.65;;;;;;;1.02;100.00;100848.98;1751529;80;20188;-77
2021/12/14 09:04:49;;;;;;;24.67;14.20;;;;;;;1.00;100.00;100844.20;1775911;80;21126;-75
2021/12/14 09:07:20;;;;;;;24.52;13.65;;;;;;;1.00;100.00;100845.49;1767019;80;21204;-78
2021/12/14 09:09:47;;;;;;;23.20;13.58;;;;;;;1.01;100.00;100844.66;1764095;80;21096;-76
2021/12/14 09:12:36;;;;;;;22.80;14.25;;;;;;;1.02;100.00;100838.61;1780788;80;21049;-75
2021/12/14 09:15:12;;;;;;;17.30;10.88;;;;;;;1.03;100.00;100842.93;1781162;80;21036;-76
2021/12/14 09:17:39;;;;;;;24.75;14.33;;;;;;;1.02;100.00;100840.34;1778216;80;21281;-75
2021/12/14 09:20:11;;;;;;;19.70;11.65;;;;;;;1.09;100.00;100843.89;1760415;80;21104;-77
2021/12/14 09:22:43;;;;;;;18.65;11.45;;;;;;;1.09;100.00;100848.64;1765984;80;20966;-77
2021/12/14 09:25:18;;;;;;;24.20;12.18;;;;;;;1.10;100.00;100844.32;1754300;80;21049;-75
2021/12/14 09:27:45;;;;;;;19.87;11.83;;;;;;;1.14;100.00;100844.81;1757265;80;21359;-75
2021/12/14 09:30:14;;;;;;;24.92;13.18;;;;;;;1.15;100.00;100847.44;1759466;80;21186;-75
2021/12/14 09:32:42;;;;;;;19.63;13.10;;;;;;;1.17;100.00;100838.36;1767105;80;21005;-75
2021/12/14 09:35:16;;;;;;;20.82;11.97;;;;;;;1.19;100.00;100842.70;1769401;80;21037;-75
2021/12/14 09:37:42;;;;;;;24.07;14.58;;;;;;;1.20;100.00;100846.20;1756139;80;21250;-75
2021/12/14 09:40:14;;;;;;;18.25;10.98;;;;;;;1.24;100.00;100844.95;1757131;80;21049;-74
2021/12/14 09:42:41;;;;;;;19.30;11.97;;;;;;;1.26;100.00;100842.36;1752778;80;21086;-75
2021/12/14 09:45:13;;;;;;;23.12;14.00;;;;;;;1.27;100.00;100836.34;1781497;80;20998;-76
2021/12/14 09:47:40;;;;;;;26.62;14.68;;;;;;;1.26;100.00;100831.98;1778194;80;21084;-75
2021/12/14 09:50:16;;;;;;;23.18;13.48;;;;;;;1.24;100.00;100831.09;1767297;80;21032;-76
2021/12/14 09:52:43;;;;;;;26.77;15.88;;;;;;;1.20;100.00;100824.14;1771245;80;20985;-76
2021/12/14 09:55:15;;;;;;;28.90;16.10;;;;;;;1.19;100.00;100826.27;1767109;80;21126;-77
2021/12/14 09:57:48;;;;;;;32.23;17.52;;;;;;;1.16;100.00;100828.84;1759552;80;21025;-74
2021/12/14 10:00:23;;;;;;;26.40;15.93;;;;;;;1.16;100.00;100827.55;1763184;80;21001;-75
2021/12/14 10:02:52;;;;;;;29.05;16.67;;;;;;;1.12;100.00;100827.05;1764283;79;21033;-72
2021/12/14 10:05:33;;;;;;;34.85;17.92;;;;;;;1.05;100.00;100823.08;1766354;80;21002;-73
2021/12/14 10:08:01;;;;;;;31.50;16.80;;;;;;;1.03;100.00;100829.96;1776647;80;21147;-72
2021/12/14 10:10:31;;;;;;;31.87;17.00;;;;;;;0.98;100.00;100826.44;1766983;80;21068;-72
2021/12/14 10:13:07;;;;;;;34.55;16.23;;;;;;;0.96;100.00;100823.39;1744702;80;21084;-74
2021/12/14 10:15:48;;;;;;;24.77;14.38;;;;;;;0.94;100.00;100815.58;1734552;81;21520;-72
2021/12/14 10:18:33;;;;;;;32.67;18.20;;;;;;;0.98;100.00;100821.69;1719895;82;21564;-72
2021/12/14 10:21:14;;;;;;;34.92;18.48;;;;;;;1.04;100.00;100810.97;1723489;82;21125;-72
2021/12/14 10:23:42;;;;;;;27.02;14.83;;;;;;;1.02;100.00;100813.97;1771456;80;21060;-72
2021/12/14 10:26:10;;;;;;;35.78;17.92;;;;;;;1.02;100.00;100811.80;1755667;80;21032;-71
2021/12/14 10:28:38;;;;;;;40.75;17.52;;;;;;;1.05;100.00;100810.11;1750202;82;21060;-73
2021/12/14 10:31:12;;;;;;;29.90;15.75;;;;;;;1.09;100.00;100804.98;1750593;81;21047;-72
2021/12/14 10:33:39;;;;;;;37.33;18.35;;;;;;;1.09;100.00;100805.84;1753953;80;21126;-71
2021/12/14 10:36:20;;;;;;;28.02;16.62;;;;;;;1.12;100.00;100803.70;1765319;80;21029;-72
2021/12/14 10:39:01;;;;;;;28.12;15.40;;;;;;;1.09;100.00;100798.06;1766092;80;21453;-73
2021/12/14 10:44:00;;;;;;;;;;;;;;;1.13;100.00;100804.13;1774406;80;21037;-73
2021/12/14 10:46:34;;;;;;;26.73;14.60;;;;;;;1.15;100.00;100802.44;1764781;80;21102;-73
2021/12/14 10:49:01;;;;;;;25.57;15.15;;;;;;;1.16;100.00;100801.60;1766251;80;21016;-74
2021/12/14 10:51:34;;;;;;;29.37;15.08;;;;;;;1.17;100.00;100803.33;1752402;80;21090;-73
2021/12/14 10:54:01;;;;;;;25.23;14.10;;;;;;;1.19;100.00;100806.81;1760849;80;21084;-73
2021/12/14 10:56:33;;;;;;;29.55;16.45;;;;;;;1.22;100.00;100805.55;1754798;80;21156;-73
2021/12/14 10:59:01;;;;;;;30.23;15.93;;;;;;;1.38;100.00;100801.41;1772843;80;21129;-74
2021/12/14 11:01:32;;;;;;;29.20;16.57;;;;;;;1.44;100.00;100803.64;1760366;80;21041;-76
2021/12/14 11:04:07;;;;;;;28.47;17.48;;;;;;;1.49;100.00;100808.89;1755613;80;21004;-76
2021/12/14 11:06:35;;;;;;;36.30;19.17;;;;;;;1.45;100.00;100802.81;1769250;80;21072;-75
2021/12/14 11:11:50;;;;;;;29.52;17.20;;;;;;;1.49;100.00;100801.09;1781954;77;21214;-75
2021/12/14 11:14:22;;;;;;;30.90;16.77;;;;;;;1.41;100.00;100797.13;1801793;77;21053;-74
2021/12/14 11:19:50;;;;;;;31.27;16.50;;;;;;;1.33;100.00;100796.16;1754719;80;21096;-74
2021/12/14 11:22:22;;;;;;;30.17;16.32;;;;;;;1.30;100.00;100802.63;1752620;80;21140;-74
2021/12/14 11:24:56;;;;;;;34.88;17.42;;;;;;;1.30;100.00;100802.63;1727709;82;21101;-74
2021/12/14 11:27:30;;;;;;;35.10;18.90;;;;;;;1.28;100.00;100803.03;1727735;80;21073;-72
2021/12/14 11:30:22;;;;;;;49.05;25.20;;;;;;;1.23;100.00;100800.81;1770302;79;21076;-75
2021/12/14 11:33:13;;;;;;;32.48;17.45;;;;;;;1.21;100.00;100803.81;1747227;79;21069;-73
2021/12/14 11:35:52;;;;;;;33.25;16.57;;;;;;;1.20;100.00;100801.66;1798770;79;21753;-74
2021/12/14 11:38:37;;;;;;;34.63;17.15;;;;;;;1.21;100.00;100799.92;1801980;77;21143;-72
2021/12/14 11:41:41;;;;;;;31.60;16.87;;;;;;;1.22;100.00;100801.66;1797829;77;21096;-72
2021/12/14 11:44:16;;;;;;;32.23;16.67;;;;;;;1.24;100.00;100802.55;1801476;77;21556;-73
2021/12/14 11:46:54;;;;;;;29.63;15.30;;;;;;;1.25;100.00;100804.30;1801290;77;21045;-70
2021/12/14 11:49:25;;;;;;;28.25;15.13;;;;;;;1.28;100.00;100803.03;1809995;77;21642;-74
2021/12/14 11:51:52;;;;;;;28.92;15.48;;;;;;;1.33;100.00;100808.27;1817513;77;21131;-74
2021/12/14 11:54:20;;;;;;;31.73;15.15;;;;;;;1.35;100.00;100803.55;1795393;77;21080;-75
2021/12/14 11:56:49;;;;;;;30.45;16.17;;;;;;;1.36;100.00;100805.73;1801683;77;21053;-74
2021/12/14 11:59:17;;;;;;;26.07;13.08;;;;;;;1.34;100.00;100810.90;1808614;77;21034;-76
2021/12/14 12:01:52;;;;;;;27.55;14.20;;;;;;;1.31;100.00;100808.68;1823297;77;21049;-75
2021/12/14 12:04:36;;;;;;;28.52;15.30;;;;;;;1.28;100.00;100806.92;1826645;77;21037;-75
2021/12/14 12:09:49;;;;;;;33.08;16.85;;;;;;;1.18;100.00;100806.38;1820743;77;20981;-78
2021/12/14 12:12:36;;;;;;;31.20;16.32;;;;;;;1.21;100.00;100810.30;1799446;77;21077;-80
2021/12/14 12:18:24;;;;;;;33.53;16.30;;;;;;;1.21;100.00;100802.52;1804682;79;22668;-83